• 1385014 10153382300060425 128216538 n
  • 3
  • 6
  • 7
  • 1
  • 10
  • 未命名
  • 121
  • 55
  • 2
  • cargo

Click here and log in to see your monthly flight duties. 請按此登入個人班表區

Welcome aboard

Current Weather

[source: ADDS]
METAR
RCTP 031630Z 19003KT 9999 FEW020 27/23 Q1009 NOSIG RMK A2982 =
TAF
TAF RCTP 031700Z 0318/0424 09005KT 9999 FEW020 TEMPO 0318/0324 17005KT BECMG 0400/0402 35008KT BECMG 0410/0412 08005KT TEMPO 0418/0424 18005KT =